Flight Track Log - Related Links

Times and Time Zones

All times are in EDT time to prevent confusion due to time zone crossing. See the GJS3710 flight status page for this flight to view local times or setup timezone preferences in your user account.

Time Position Orientation Groundspeed Altitude Reporting Facility
EDT Latitude Longitude Course Direction KTS MPH feet Rate Location/Type
Sat 01:06:10 PM 30.1972 -97.7669 291° West 246 283 5,500  Level Houston Center
Sat 01:07:00 PM 30.4462 -97.7519 293° West  Level FlightAware Approximate
Sat 01:07:12 PM 30.2481 -97.8444 307° West 287 330 7,800  Level Houston Center
Sat 01:08:00 PM 30.4900 -97.8723 293° West  Level FlightAware Approximate
Sat 01:08:14 PM 30.3006 -97.9367 303° West 303 349 10,800  Level Houston Center
Sat 01:09:00 PM 30.5314 -97.9939 291° West  Level FlightAware Approximate
Sat 01:09:16 PM 30.3531 -98.0239 305° West 307 353 13,100  Level Houston Center
Sat 01:10:00 PM 30.5721 -98.1159 291° West  Level FlightAware Approximate
Sat 01:10:18 PM 30.4033 -98.1125 303° West 321 369 14,900  Level Houston Center
Sat 01:11:00 PM 30.6127 -98.2380 291° West  Level FlightAware Approximate
Sat 01:11:20 PM 30.4806 -98.1847 321° Northwest 351 404 17,000  Level Houston Center
Sat 01:12:22 PM 30.5653 -98.2547 325° Northwest 365 420 18,800 1,659 Climbing Houston Center
Sat 01:13:23 PM 30.6533 -98.3267 325° Northwest 379 436 20,400 1,463 Climbing Houston Center
Sat 01:14:25 PM 30.7464 -98.4025 325° Northwest 397 457 21,800 1,355 Climbing Houston Center
Sat 01:15:27 PM 30.8414 -98.4797 325° Northwest 408 470 23,200 1,548 Climbing Houston Center
Sat 01:16:29 PM 30.9378 -98.5583 325° Northwest 416 479 25,000 1,597 Climbing Houston Center
Sat 01:17:31 PM 31.0328 -98.6372 325° Northwest 414 476 26,500 1,403 Climbing Houston Center
Sat 01:18:33 PM 31.1294 -98.7175 325° Northwest 419 482 27,900 1,268 Climbing Houston Center
Sat 01:19:34 PM 31.2411 -98.8122 324° Northwest 420 483 29,100 1,073 Climbing Houston Center
Sat 01:20:36 PM 31.3386 -98.8947 324° Northwest 426 490 30,100 944 Climbing Houston Center
Sat 01:21:22 PM 31.4064 -98.9542 323° Northwest 428 493 30,800 1,132 Climbing Fort Worth Center
Sat 01:22:22 PM 31.5033 -99.0361 324° Northwest 439 505 32,100 1,400 Climbing Fort Worth Center
Sat 01:23:22 PM 31.5983 -99.1108 326° Northwest 429 494 33,600 1,350 Climbing Fort Worth Center
Sat 01:24:22 PM 31.6933 -99.1883 325° Northwest 417 480 34,800 1,150 Climbing Fort Worth Center
Sat 01:25:22 PM 31.7861 -99.2708 323° Northwest 417 480 35,900 800 Climbing Fort Worth Center
Sat 01:26:22 PM 31.8789 -99.3486 325° Northwest 411 473 36,400 500 Climbing Fort Worth Center
Sat 01:27:22 PM 31.9758 -99.4289 325° Northwest 411 473 36,900 500 Climbing Fort Worth Center
Sat 01:28:22 PM 32.0683 -99.5119 323° Northwest 416 479 37,400 500 Climbing Fort Worth Center
Sat 01:29:22 PM 32.1672 -99.5928 325° Northwest 426 490 37,900 300 Climbing Fort Worth Center
Sat 01:30:22 PM 32.2617 -99.6761 323° Northwest 426 490 38,000 50 Climbing Fort Worth Center
Sat 01:31:22 PM 32.3583 -99.7572 325° Northwest 426 490 38,000  Level Fort Worth Center
Sat 01:32:22 PM 32.4528 -99.8408 323° Northwest 426 490 38,000  Level Fort Worth Center
Sat 01:33:22 PM 32.5494 -99.9125 328° Northwest 426 490 38,000  Level Fort Worth Center
Sat 01:34:22 PM 32.6650 -99.9800 334° Northwest 432 497 38,000  Level Fort Worth Center
Sat 01:35:22 PM 32.7803 -100.0622 329° Northwest 438 504 38,000  Level Fort Worth Center
Sat 01:36:22 PM 32.8853 -100.1247 333° Northwest 432 497 38,000  Level Fort Worth Center
Sat 01:37:22 PM 32.9903 -100.1922 332° Northwest 432 497 38,000  Level Fort Worth Center
Sat 01:38:22 PM 33.0953 -100.2625 331° Northwest 427 491 38,000  Level Fort Worth Center
Sat 01:39:22 PM 33.2022 -100.3306 332° Northwest 427 491 38,000  Level Fort Worth Center
Sat 01:40:22 PM 33.3092 -100.3986 332° Northwest 427 491 38,000  Level Fort Worth Center
Sat 01:41:22 PM 33.4139 -100.4719 330° Northwest 427 491 38,000  Level Fort Worth Center
Sat 01:42:22 PM 33.5247 -100.5406 333° Northwest 427 491 38,000  Level Fort Worth Center
Sat 01:43:22 PM 33.6294 -100.6117 331° Northwest 427 491 38,000  Level Fort Worth Center
Sat 01:44:22 PM 33.7361 -100.6806 332° Northwest 427 491 38,000  Level Fort Worth Center
Sat 01:45:22 PM 33.8428 -100.7544 330° Northwest 427 491 38,000  Level Fort Worth Center
Sat 01:46:22 PM 33.9494 -100.8186 333° Northwest 427 491 38,000  Level Fort Worth Center
Sat 01:47:57 PM 34.1058 -100.9250 331° Northwest 426 490 38,000  Level Albuquerque Center
Sat 01:48:59 PM 34.2086 -100.9967 330° Northwest 426 490 38,000  Level Albuquerque Center
Sat 01:50:01 PM 34.3122 -101.0664 331° Northwest 426 490 38,000  Level Albuquerque Center
Sat 01:51:03 PM 34.4167 -101.1361 331° Northwest 428 493 38,000  Level Albuquerque Center
Sat 01:52:05 PM 34.5214 -101.2083 330° Northwest 432 497 38,000  Level Albuquerque Center
Sat 01:53:07 PM 34.6494 -101.2942 331° Northwest 436 502 38,000  Level Albuquerque Center
Sat 01:54:08 PM 34.7558 -101.3678 330° Northwest 439 505 38,000  Level Albuquerque Center
Sat 01:55:10 PM 34.8628 -101.4406 331° Northwest 441 507 38,000  Level Albuquerque Center
Sat 01:56:12 PM 34.9689 -101.5142 330° Northwest 441 507 38,000  Level Albuquerque Center
Sat 01:57:14 PM 35.0767 -101.5881 331° Northwest 447 514 38,000  Level Albuquerque Center
Sat 01:58:16 PM 35.1872 -101.6625 331° Northwest 444 511 38,000  Level Albuquerque Center
Sat 01:59:18 PM 35.3153 -101.7350 335° Northwest 435 501 38,000  Level Albuquerque Center
Sat 02:00:19 PM 35.4342 -101.7889 340° North 445 512 38,000  Level Albuquerque Center
Sat 02:01:21 PM 35.5333 -101.8361 339° North 439 505 38,000  Level Albuquerque Center
Sat 02:02:23 PM 35.6714 -101.9008 339° North 440 506 38,000  Level Albuquerque Center
Sat 02:03:25 PM 35.7892 -101.9542 340° North 447 514 38,000  Level Albuquerque Center
Sat 02:04:27 PM 35.9083 -102.0108 339° North 454 522 38,000  Level Albuquerque Center
Sat 02:05:29 PM 36.0292 -102.0672 339° North 462 532 38,000  Level Albuquerque Center
Sat 02:06:30 PM 36.1514 -102.1233 340° North 468 539 38,000  Level Albuquerque Center
Sat 02:07:32 PM 36.2739 -102.1817 339° North 471 542 38,000  Level Albuquerque Center
Sat 02:08:34 PM 36.3978 -102.2400 339° North 475 547 38,000  Level Albuquerque Center
Sat 02:09:36 PM 36.5453 -102.3106 339° North 474 545 38,000 -195 Level Albuquerque Center
Sat 02:10:37 PM 36.6669 -102.3681 339° North 470 541 37,600 -677 Descending Albuquerque Center
Sat 02:11:40 PM 36.7892 -102.4264 339° North 470 541 36,600 -774 Descending Albuquerque Center
Sat 02:12:41 PM 36.9147 -102.4864 339° North 469 540 36,000 -293 Descending Albuquerque Center
Sat 02:13:43 PM 37.0336 -102.5450 339° North 471 542 36,000  Level Albuquerque Center
Sat 02:14:44 PM 37.1725 -102.6128 339° North 476 548 36,000  Level Albuquerque Center
Sat 02:15:46 PM 37.2947 -102.6722 339° North 483 556 36,000  Level Albuquerque Center
Sat 02:16:52 PM 37.4369 -102.7381 340° North 488 562 36,000  Level Denver Center
Sat 02:17:54 PM 37.5797 -102.7983 342° North 485 558 36,000 -242 Level Denver Center
Sat 02:18:56 PM 37.6928 -102.8714 333° Northwest 482 555 35,500 -774 Descending Denver Center
Sat 02:19:58 PM 37.8203 -102.9703 329° Northwest 481 554 34,400 -726 Descending Denver Center
Sat 02:21:00 PM 37.9294 -103.0556 328° Northwest 483 556 34,000 -194 Descending Denver Center
Sat 02:22:02 PM 38.0522 -103.1525 328° Northwest 472 543 34,000  Level Denver Center
Sat 02:23:04 PM 38.1606 -103.2386 328° Northwest 478 550 34,000  Level Denver Center
Sat 02:24:05 PM 38.2703 -103.3239 329° Northwest 483 556 34,000  Level Denver Center
Sat 02:25:07 PM 38.4000 -103.4269 328° Northwest 475 547 34,000  Level Denver Center
Sat 02:26:09 PM 38.4994 -103.5069 328° Northwest 467 537 34,000 -484 Level Denver Center
Sat 02:27:11 PM 38.6250 -103.6083 328° Northwest 480 552 33,000 -968 Descending Denver Center
Sat 02:28:13 PM 38.7389 -103.6994 328° Northwest 500 575 32,000 -1,951 Descending Denver Center
Sat 02:29:14 PM 38.8719 -103.8078 328° Northwest 506 582 29,000 -3,122 Descending Denver Center
Sat 02:30:16 PM 38.9828 -103.8969 328° Northwest 496 571 25,600 -3,532 Descending Denver Center
Sat 02:31:18 PM 39.1067 -103.9994 327° Northwest 476 548 21,700 -2,952 Descending Denver Center
Sat 02:32:20 PM 39.2028 -104.0786 327° Northwest 450 518 19,500 -1,854 Descending Denver Center
Sat 02:33:21 PM 39.2722 -104.1819 311° West 354 407 17,900 -1,707 Descending Denver Center
Sat 02:34:23 PM 39.2975 -104.2956 286° West 333 383 16,000 -1,694 Descending Denver Center
Sat 02:35:25 PM 39.3253 -104.4025 289° West 318 366 14,400 -1,694 Descending Denver Center
Sat 02:36:27 PM 39.4078 -104.4581 333° Northwest 315 362 12,500 -1,707 Descending Denver Center
Sat 02:37:28 PM 39.4850 -104.5006 337° Northwest 303 349 10,900 -1,268 Descending Denver Center
Sat 02:38:30 PM 39.5644 -104.5431 338° Northwest 288 331 9,900 -1,016 Descending Denver Center
Sat 02:39:32 PM 39.6236 -104.5781 336° Northwest 242 278 8,800 -871 Descending Denver Center
Sat 02:40:34 PM 39.6767 -104.6072 337° Northwest 214 246 8,100 -677 Descending Denver Center
Sat 02:41:36 PM 39.7336 -104.6317 342° North 203 234 7,400 -677 Descending Denver Center

Login

Don't have an account? Register now (free) for customized features, flight alerts, and more!